»·PEaware :: N118LW KLMT-L71

N118LW :: KLMT-L71

FLIGHT INFORMATION

Flight Status: Arrived
Operator: Privately registered:
United States
More flights under this callsign
Pilot: Lee W. (44)
Aircraft: Unknown
(FA7X)
More flights by this aircraft type
Origin: KLMT Klamath Falls Intl
United States
Destination: L71 California City Mun
United States
More flights between these airports :: More routes between these airports
Route: RBL J65 CZQ
File this flight plan on PilotEdge
Remarks:
Altitude:
(Current/Filed)
35,000ft
Speed:
(Current/Filed)
500kts
Departed: 13-Jun-15 10:12 AM
Arrived: 13-Jun-15 11:27 AM
Distance/Time
Traveled:
455nm/1:14
Distance/Time
To Go:
Arrived

Flight Plot

Page will automatically refresh every two minutes.


Map Options




Map Legend


Flown Route
Filed Route
Departure Airport
Arrival Airport
Navaid (VOR, NDB)
Fix

Horizontal Profiles

Position Reports

Time Latitude Longitude Heading Altitude Ground
Speed
13-Jun-15 10:02 42.167557 -121.742893 130 4099ft 0kts
13-Jun-15 10:03 42.167557 -121.742893 130 4099ft 0kts
13-Jun-15 10:04 42.167539 -121.742863 130 4099ft 1kts
13-Jun-15 10:05 42.162510 -121.742132 179 4099ft 33kts
13-Jun-15 10:06 42.157649 -121.737499 88 4099ft 20kts
13-Jun-15 10:07 42.162508 -121.736793 339 4099ft 119kts
13-Jun-15 10:08 42.221958 -121.771705 314 6061ft 279kts
13-Jun-15 10:09 42.200803 -121.851795 188 9155ft 301kts
13-Jun-15 10:10 42.119235 -121.819682 163 12197ft 321kts
13-Jun-15 10:11 42.034693 -121.780560 173 15149ft 332kts
13-Jun-15 10:12 41.943846 -121.787491 194 18132ft 340kts
13-Jun-15 10:13 41.849977 -121.810103 195 21093ft 358kts
13-Jun-15 10:14 41.751864 -121.834569 195 24033ft 378kts
13-Jun-15 10:15 41.648048 -121.860403 195 26998ft 397kts
13-Jun-15 10:16 41.537943 -121.887715 195 29973ft 421kts
13-Jun-15 10:17 41.429913 -121.914411 196 32753ft 437kts
13-Jun-15 10:18 41.318957 -121.941756 196 34970ft 452kts
13-Jun-15 10:19 41.199905 -121.970995 196 35033ft 452kts
13-Jun-15 10:20 41.080045 -122.000294 196 35038ft 452kts
13-Jun-15 10:21 40.962241 -122.029003 196 35035ft 452kts
13-Jun-15 10:22 40.840670 -122.058555 196 34814ft 472kts
13-Jun-15 10:23 40.704781 -122.091402 195 34797ft 516kts
13-Jun-15 10:24 40.568753 -122.124611 194 34804ft 516kts
13-Jun-15 10:25 40.439375 -122.155666 194 34803ft 516kts
13-Jun-15 10:26 40.302795 -122.188291 194 34801ft 516kts
13-Jun-15 10:27 40.174733 -122.218763 194 34801ft 517kts
13-Jun-15 10:28 40.033572 -122.208049 166 34808ft 536kts
13-Jun-15 10:29 39.895338 -122.150410 165 34803ft 536kts
13-Jun-15 10:30 39.756851 -122.092164 165 34814ft 536kts
13-Jun-15 10:31 39.617345 -122.033735 165 34815ft 537kts
13-Jun-15 10:32 39.479023 -121.976045 165 34825ft 537kts
13-Jun-15 10:33 39.358384 -121.925926 165 34823ft 537kts
13-Jun-15 10:34 39.223908 -121.869847 165 34803ft 538kts
13-Jun-15 10:35 39.086738 -121.813245 165 34797ft 538kts
13-Jun-15 10:36 38.946349 -121.755622 165 34798ft 538kts
13-Jun-15 10:37 38.806219 -121.698345 165 34789ft 538kts
13-Jun-15 10:38 38.665725 -121.641156 165 34790ft 539kts
13-Jun-15 10:39 38.525050 -121.584127 165 34803ft 539kts
13-Jun-15 10:40 38.408658 -121.509639 141 34815ft 549kts
13-Jun-15 10:41 38.299915 -121.387106 139 34809ft 550kts
13-Jun-15 10:42 38.190390 -121.262474 139 34810ft 551kts
13-Jun-15 10:43 38.081670 -121.139265 139 34812ft 550kts
13-Jun-15 10:44 37.970137 -121.013399 139 34813ft 550kts
13-Jun-15 10:45 37.860774 -120.890478 140 34813ft 550kts
13-Jun-15 10:46 37.754588 -120.771063 140 34789ft 550kts
13-Jun-15 10:47 37.644981 -120.648884 140 34790ft 550kts
13-Jun-15 10:48 37.533943 -120.525623 140 34792ft 550kts
13-Jun-15 10:49 37.436382 -120.417741 140 34790ft 550kts
13-Jun-15 10:50 37.325835 -120.295968 140 34780ft 550kts
13-Jun-15 10:51 37.221232 -120.181204 139 34791ft 551kts
13-Jun-15 10:52 37.108905 -120.058442 139 34792ft 551kts
13-Jun-15 10:53 37.004114 -119.944373 139 34793ft 551kts
13-Jun-15 10:54 36.900855 -119.831890 140 34796ft 551kts
13-Jun-15 10:55 36.790719 -119.715012 140 34798ft 549kts
13-Jun-15 10:56 36.686585 -119.604236 140 34801ft 551kts
13-Jun-15 10:57 36.573421 -119.484514 143 34798ft 551kts
13-Jun-15 10:58 36.445004 -119.456641 191 34797ft 529kts
13-Jun-15 10:59 36.322132 -119.476233 191 34788ft 529kts
13-Jun-15 11:00 36.181038 -119.450166 154 34315ft 548kts
13-Jun-15 11:01 36.085466 -119.331578 131 32067ft 532kts
13-Jun-15 11:02 35.994078 -119.200719 130 29223ft 506kts
13-Jun-15 11:03 35.907506 -119.077172 130 26296ft 472kts
13-Jun-15 11:04 35.830156 -118.967168 130 23508ft 443kts
13-Jun-15 11:05 35.765813 -118.875751 130 21056ft 424kts
13-Jun-15 11:06 35.699451 -118.781538 130 18406ft 404kts
13-Jun-15 11:07 35.630891 -118.684834 130 15521ft 380kts
13-Jun-15 11:08 35.565114 -118.592351 131 12605ft 365kts
13-Jun-15 11:09 35.500523 -118.501772 131 10170ft 353kts
13-Jun-15 11:10 35.447484 -118.427547 131 10209ft 355kts
13-Jun-15 11:11 35.408292 -118.372820 131 10212ft 355kts
13-Jun-15 11:12 35.344509 -118.283945 131 10208ft 355kts
13-Jun-15 11:13 35.281472 -118.196343 130 10080ft 328kts
13-Jun-15 11:14 35.263705 -118.109928 94 9758ft 243kts
13-Jun-15 11:15 35.247565 -118.046753 95 8135ft 240kts
13-Jun-15 11:16 35.261835 -117.969072 74 6246ft 242kts
13-Jun-15 11:17 35.253835 -117.888071 161 4172ft 228kts
13-Jun-15 11:18 35.210717 -117.873752 165 4494ft 189kts
13-Jun-15 11:19 35.178042 -117.903704 250 4224ft 145kts
13-Jun-15 11:20 35.165989 -117.946066 255 2989ft 122kts
13-Jun-15 11:21 35.158123 -117.983311 258 2673ft 124kts
13-Jun-15 11:22 35.151862 -118.013942 254 2439ft 35kts
13-Jun-15 11:23 35.150081 -118.016171 192 2439ft 0kts

Navigation Log

Ident Type
1. KLMT Airport
2. RBL Navaid
3. SAC Navaid
4. CZQ Navaid
5. L71 Airport